EDDH

Hamburg Airport

Hamburg, Germany
METAR EDDH 221720Z 06012KT 020V080 CAVOK 21/08 Q1015 NOSIG
Observed Flight Rules
May-22 @ 17:20 UTC (30 minutes ago) Visual Flight Rules
Wind Visibility Clouds
60° at 12 knots 10,000+ meters
  • Clear skies
Temperatures Readings
Current 21°C / 70°F
Dewpoint 8°C / 46°F
Humidity 43%
Altimeter 29.97" Hg
Pressure 1015 hPa
Elevation 16
METAR EDDH 221720Z 06012KT 020V080 CAVOK 21/08 Q1015 NOSIG
Observed Flight Rules
May-22 @ 17:20 UTC
(30 minutes ago)
VFR
Wind Visibility
60° at 12 knots 10,000+ meters
Clouds
  • Clear skies
Temperature Dewpoint
21°C / 70°F 8°C / 46°F
Humidity Altimeter Pressure
43% 29.97" Hg 1015 hPa